sensor_id;sensor_type;location;lat;lon;timestamp;pressure;altitude;pressure_sealevel;temperature;humidity
31357;BME280;60001;48.404;11.738;2023-02-16T00:00:43;97354.38;;;-0.04;91.53
31357;BME280;60001;48.404;11.738;2023-02-16T00:02:13;97368.34;;;0.03;91.57
31357;BME280;60001;48.404;11.738;2023-02-16T00:03:46;97367.88;;;0.08;91.57
31357;BME280;60001;48.404;11.738;2023-02-16T00:05:23;97359.56;;;0.12;91.55
31357;BME280;60001;48.404;11.738;2023-02-16T00:06:57;97355.88;;;0.15;91.85
31357;BME280;60001;48.404;11.738;2023-02-16T00:08:29;97354.38;;;0.04;90.83
31357;BME280;60001;48.404;11.738;2023-02-16T00:09:59;97353.84;;;-0.08;90.92
31357;BME280;60001;48.404;11.738;2023-02-16T00:11:34;97352.06;;;-0.07;90.56
31357;BME280;60001;48.404;11.738;2023-02-16T00:13:29;97350.44;;;-0.08;91.46
31357;BME280;60001;48.404;11.738;2023-02-16T00:15:19;97354.38;;;-0.04;92.17
31357;BME280;60001;48.404;11.738;2023-02-16T00:16:52;97356.78;;;-0.03;91.91
31357;BME280;60001;48.404;11.738;2023-02-16T00:18:24;97355.69;;;0.00;91.85
31357;BME280;60001;48.404;11.738;2023-02-16T00:19:55;97354.03;;;-0.01;91.73
31357;BME280;60001;48.404;11.738;2023-02-16T00:21:27;97349.00;;;-0.03;91.85
31357;BME280;60001;48.404;11.738;2023-02-16T00:23:00;97350.50;;;0.00;91.74
31357;BME280;60001;48.404;11.738;2023-02-16T00:24:32;97342.38;;;0.03;91.64
31357;BME280;60001;48.404;11.738;2023-02-16T00:26:05;97347.09;;;0.08;91.10
31357;BME280;60001;48.404;11.738;2023-02-16T00:27:39;97343.19;;;0.12;91.44
31357;BME280;60001;48.404;11.738;2023-02-16T00:29:18;97350.00;;;0.13;91.55
31357;BME280;60001;48.404;11.738;2023-02-16T00:30:50;97347.56;;;0.11;91.57
31357;BME280;60001;48.404;11.738;2023-02-16T00:32:21;97346.59;;;0.12;91.44
31357;BME280;60001;48.404;11.738;2023-02-16T00:33:53;97344.00;;;0.12;91.34
31357;BME280;60001;48.404;11.738;2023-02-16T00:35:25;97344.50;;;0.08;90.58
31357;BME280;60001;48.404;11.738;2023-02-16T00:36:59;97343.34;;;0.02;90.58
31357;BME280;60001;48.404;11.738;2023-02-16T00:38:32;97335.84;;;-0.01;90.69
31357;BME280;60001;48.404;11.738;2023-02-16T00:40:05;97339.13;;;0.01;91.05
31357;BME280;60001;48.404;11.738;2023-02-16T00:41:37;97338.31;;;0.01;90.88
31357;BME280;60001;48.404;11.738;2023-02-16T00:43:27;97331.63;;;-0.02;90.86
31357;BME280;60001;48.404;11.738;2023-02-16T00:45:00;97335.22;;;-0.03;90.41
31357;BME280;60001;48.404;11.738;2023-02-16T00:46:32;97337.47;;;-0.08;89.99
31357;BME280;60001;48.404;11.738;2023-02-16T00:48:04;97337.78;;;-0.11;89.46
31357;BME280;60001;48.404;11.738;2023-02-16T00:49:36;97344.94;;;-0.13;90.17
31357;BME280;60001;48.404;11.738;2023-02-16T00:51:07;97337.44;;;-0.16;90.04
31357;BME280;60001;48.404;11.738;2023-02-16T00:52:40;97322.34;;;-0.21;89.99
31357;BME280;60001;48.404;11.738;2023-02-16T00:54:14;97331.09;;;-0.22;90.30
31357;BME280;60001;48.404;11.738;2023-02-16T00:55:45;97333.88;;;-0.23;89.70
31357;BME280;60001;48.404;11.738;2023-02-16T00:57:18;97336.91;;;-0.28;89.66
31357;BME280;60001;48.404;11.738;2023-02-16T00:58:51;97337.91;;;-0.29;89.28
31357;BME280;60001;48.404;11.738;2023-02-16T01:00:28;97334.97;;;-0.34;89.24
31357;BME280;60001;48.404;11.738;2023-02-16T01:02:02;97330.25;;;-0.39;90.14
31357;BME280;60001;48.404;11.738;2023-02-16T01:03:35;97325.22;;;-0.40;88.96
31357;BME280;60001;48.404;11.738;2023-02-16T01:05:07;97325.53;;;-0.43;89.97
31357;BME280;60001;48.404;11.738;2023-02-16T01:06:39;97330.88;;;-0.45;89.66
31357;BME280;60001;48.404;11.738;2023-02-16T01:08:28;97337.84;;;-0.45;90.46
31357;BME280;60001;48.404;11.738;2023-02-16T01:10:22;97334.28;;;-0.44;90.59
31357;BME280;60001;48.404;11.738;2023-02-16T01:12:16;97330.72;;;-0.43;90.20
31357;BME280;60001;48.404;11.738;2023-02-16T01:13:50;97329.75;;;-0.42;90.28
31357;BME280;60001;48.404;11.738;2023-02-16T01:15:24;97324.41;;;-0.41;90.46
31357;BME280;60001;48.404;11.738;2023-02-16T01:16:56;97330.41;;;-0.40;90.55
31357;BME280;60001;48.404;11.738;2023-02-16T01:18:28;97315.44;;;-0.54;89.48
31357;BME280;60001;48.404;11.738;2023-02-16T01:20:00;97326.66;;;-0.46;89.87
31357;BME280;60001;48.404;11.738;2023-02-16T01:21:33;97333.16;;;-0.42;90.08
31357;BME280;60001;48.404;11.738;2023-02-16T01:23:04;97334.63;;;-0.39;89.73
31357;BME280;60001;48.404;11.738;2023-02-16T01:24:36;97334.31;;;-0.36;90.09
31357;BME280;60001;48.404;11.738;2023-02-16T01:26:14;97334.31;;;-0.36;89.90
31357;BME280;60001;48.404;11.738;2023-02-16T01:27:47;97331.41;;;-0.33;90.05
31357;BME280;60001;48.404;11.738;2023-02-16T01:29:20;97330.44;;;-0.32;90.03
31357;BME280;60001;48.404;11.738;2023-02-16T01:30:52;97325.72;;;-0.29;89.83
31357;BME280;60001;48.404;11.738;2023-02-16T01:32:23;97323.00;;;-0.27;90.39
31357;BME280;60001;48.404;11.738;2023-02-16T01:33:55;97329.66;;;-0.24;90.65
31357;BME280;60001;48.404;11.738;2023-02-16T01:35:32;97328.03;;;-0.25;89.79
31357;BME280;60001;48.404;11.738;2023-02-16T01:37:04;97326.06;;;-0.23;90.22
31357;BME280;60001;48.404;11.738;2023-02-16T01:38:36;97325.44;;;-0.25;90.33
31357;BME280;60001;48.404;11.738;2023-02-16T01:40:27;97324.09;;;-0.30;89.82
31357;BME280;60001;48.404;11.738;2023-02-16T01:42:25;97328.66;;;-0.32;89.33
31357;BME280;60001;48.404;11.738;2023-02-16T01:44:04;97318.91;;;-0.30;90.04
31357;BME280;60001;48.404;11.738;2023-02-16T01:45:39;97319.41;;;-0.34;89.55
31357;BME280;60001;48.404;11.738;2023-02-16T01:47:27;97319.41;;;-0.34;90.13
31357;BME280;60001;48.404;11.738;2023-02-16T01:49:00;97312.75;;;-0.37;90.00
31357;BME280;60001;48.404;11.738;2023-02-16T01:50:41;97315.16;;;-0.35;89.45
31357;BME280;60001;48.404;11.738;2023-02-16T01:52:25;97309.97;;;-0.35;90.14
31357;BME280;60001;48.404;11.738;2023-02-16T01:54:10;97307.91;;;-0.32;90.28
31357;BME280;60001;48.404;11.738;2023-02-16T01:55:49;97303.69;;;-0.33;90.38
31357;BME280;60001;48.404;11.738;2023-02-16T01:57:33;97312.47;;;-0.25;90.22
31357;BME280;60001;48.404;11.738;2023-02-16T01:59:20;97307.56;;;-0.29;89.51
31357;BME280;60001;48.404;11.738;2023-02-16T02:03:18;97294.41;;;-0.35;90.00
31357;BME280;60001;48.404;11.738;2023-02-16T02:05:21;97303.50;;;-0.31;89.75
31357;BME280;60001;48.404;11.738;2023-02-16T02:07:18;97309.06;;;-0.26;90.29
31357;BME280;60001;48.404;11.738;2023-02-16T02:08:59;97309.34;;;-0.29;89.85
31357;BME280;60001;48.404;11.738;2023-02-16T02:10:40;97305.94;;;-0.30;89.57
31357;BME280;60001;48.404;11.738;2023-02-16T02:12:26;97287.28;;;-0.41;89.98
31357;BME280;60001;48.404;11.738;2023-02-16T02:14:04;97300.44;;;-0.35;90.24
31357;BME280;60001;48.404;11.738;2023-02-16T02:15:37;97302.19;;;-0.35;90.17
31357;BME280;60001;48.404;11.738;2023-02-16T02:17:13;97297.84;;;-0.35;90.34
31357;BME280;60001;48.404;11.738;2023-02-16T02:18:46;97296.19;;;-0.36;89.79
31357;BME280;60001;48.404;11.738;2023-02-16T02:20:25;97285.97;;;-0.37;89.64
31357;BME280;60001;48.404;11.738;2023-02-16T02:22:51;97292.94;;;-0.38;89.77
31357;BME280;60001;48.404;11.738;2023-02-16T02:25:20;97285.81;;;-0.36;89.97
31357;BME280;60001;48.404;11.738;2023-02-16T02:27:06;97281.31;;;-0.34;90.25
31357;BME280;60001;48.404;11.738;2023-02-16T02:28:55;97279.34;;;-0.32;90.28
31357;BME280;60001;48.404;11.738;2023-02-16T02:30:45;97280.81;;;-0.29;90.74
31357;BME280;60001;48.404;11.738;2023-02-16T02:32:28;97281.59;;;-0.29;89.78
31357;BME280;60001;48.404;11.738;2023-02-16T02:34:16;97281.59;;;-0.29;89.66
31357;BME280;60001;48.404;11.738;2023-02-16T02:36:00;97280.00;;;-0.30;89.54
31357;BME280;60001;48.404;11.738;2023-02-16T02:37:45;97277.72;;;-0.33;89.64
31357;BME280;60001;48.404;11.738;2023-02-16T02:39:35;97291.34;;;-0.39;89.24
31357;BME280;60001;48.404;11.738;2023-02-16T02:41:17;97288.41;;;-0.36;89.21
31357;BME280;60001;48.404;11.738;2023-02-16T02:43:03;97291.16;;;-0.37;90.23
31357;BME280;60001;48.404;11.738;2023-02-16T02:44:40;97291.34;;;-0.39;89.94
31357;BME280;60001;48.404;11.738;2023-02-16T02:46:16;97295.06;;;-0.41;89.33
31357;BME280;60001;48.404;11.738;2023-02-16T02:47:50;97288.56;;;-0.45;89.03
31357;BME280;60001;48.404;11.738;2023-02-16T02:49:20;97290.50;;;-0.47;89.60
31357;BME280;60001;48.404;11.738;2023-02-16T02:50:56;97297.63;;;-0.49;89.63
31357;BME280;60001;48.404;11.738;2023-02-16T02:52:46;97294.84;;;-0.56;89.60
31357;BME280;60001;48.404;11.738;2023-02-16T02:54:20;97289.66;;;-0.56;89.13
31357;BME280;60001;48.404;11.738;2023-02-16T02:56:20;97284.16;;;-0.53;90.02
31357;BME280;60001;48.404;11.738;2023-02-16T02:58:12;97291.94;;;-0.53;90.38
31357;BME280;60001;48.404;11.738;2023-02-16T03:00:06;97296.16;;;-0.52;89.88
31357;BME280;60001;48.404;11.738;2023-02-16T03:01:59;97293.88;;;-0.55;89.03
31357;BME280;60001;48.404;11.738;2023-02-16T03:03:36;97296.94;;;-0.60;89.65
31357;BME280;60001;48.404;11.738;2023-02-16T03:05:13;97297.09;;;-0.61;89.66
31357;BME280;60001;48.404;11.738;2023-02-16T03:06:49;97288.34;;;-0.60;89.67
31357;BME280;60001;48.404;11.738;2023-02-16T03:08:26;97284.63;;;-0.58;89.80
31357;BME280;60001;48.404;11.738;2023-02-16T03:09:59;97285.31;;;-0.56;90.49
31357;BME280;60001;48.404;11.738;2023-02-16T03:11:54;97282.69;;;-0.56;89.57
31357;BME280;60001;48.404;11.738;2023-02-16T03:13:49;97290.50;;;-0.56;89.55
31357;BME280;60001;48.404;11.738;2023-02-16T03:15:24;97287.22;;;-0.58;89.74
31357;BME280;60001;48.404;11.738;2023-02-16T03:16:59;97297.75;;;-0.59;89.97
31357;BME280;60001;48.404;11.738;2023-02-16T03:18:49;97290.94;;;-0.60;89.45
31357;BME280;60001;48.404;11.738;2023-02-16T03:20:41;97282.34;;;-0.61;89.78
31357;BME280;60001;48.404;11.738;2023-02-16T03:22:32;97279.09;;;-0.63;89.00
31357;BME280;60001;48.404;11.738;2023-02-16T03:24:26;97280.56;;;-0.60;89.07
31357;BME280;60001;48.404;11.738;2023-02-16T03:26:18;97277.00;;;-0.59;89.90
31357;BME280;60001;48.404;11.738;2023-02-16T03:28:10;97282.00;;;-0.66;89.04
31357;BME280;60001;48.404;11.738;2023-02-16T03:30:05;97286.53;;;-0.68;88.83
31357;BME280;60001;48.404;11.738;2023-02-16T03:31:39;97282.16;;;-0.67;88.75
31357;BME280;60001;48.404;11.738;2023-02-16T03:33:11;97284.75;;;-0.67;89.80
31357;BME280;60001;48.404;11.738;2023-02-16T03:34:43;97281.66;;;-0.71;89.36
31357;BME280;60001;48.404;11.738;2023-02-16T03:36:15;97291.38;;;-0.73;89.06
31357;BME280;60001;48.404;11.738;2023-02-16T03:37:46;97280.34;;;-0.75;89.13
31357;BME280;60001;48.404;11.738;2023-02-16T03:39:19;97282.94;;;-0.75;89.09
31357;BME280;60001;48.404;11.738;2023-02-16T03:40:51;97291.53;;;-0.74;88.73
31357;BME280;60001;48.404;11.738;2023-02-16T03:42:23;97294.44;;;-0.77;88.81
31357;BME280;60001;48.404;11.738;2023-02-16T03:43:54;97311.31;;;-0.73;89.30
31357;BME280;60001;48.404;11.738;2023-02-16T03:45:29;97306.13;;;-0.73;89.28
31357;BME280;60001;48.404;11.738;2023-02-16T03:47:00;97305.31;;;-0.74;89.60
31357;BME280;60001;48.404;11.738;2023-02-16T03:48:32;97311.00;;;-0.70;88.95
31357;BME280;60001;48.404;11.738;2023-02-16T03:50:05;97307.59;;;-0.71;89.50
31357;BME280;60001;48.404;11.738;2023-02-16T03:51:37;97306.13;;;-0.73;88.92
31357;BME280;60001;48.404;11.738;2023-02-16T03:53:08;97308.38;;;-0.78;88.18
31357;BME280;60001;48.404;11.738;2023-02-16T03:54:40;97309.50;;;-0.81;88.57
31357;BME280;60001;48.404;11.738;2023-02-16T03:56:12;97312.09;;;-0.81;88.60
31357;BME280;60001;48.404;11.738;2023-02-16T03:57:44;97321.66;;;-0.81;88.63
31357;BME280;60001;48.404;11.738;2023-02-16T03:59:15;97316.75;;;-0.85;88.43
31357;BME280;60001;48.404;11.738;2023-02-16T04:00:48;97316.94;;;-0.86;88.27
31357;BME280;60001;48.404;11.738;2023-02-16T04:02:20;97305.59;;;-0.85;88.29
31357;BME280;60001;48.404;11.738;2023-02-16T04:03:52;97313.88;;;-0.81;88.18
31357;BME280;60001;48.404;11.738;2023-02-16T04:05:26;97310.31;;;-0.80;88.89
31357;BME280;60001;48.404;11.738;2023-02-16T04:06:58;97311.13;;;-0.80;88.61
31357;BME280;60001;48.404;11.738;2023-02-16T04:08:30;97322.75;;;-0.84;88.12
31357;BME280;60001;48.404;11.738;2023-02-16T04:10:02;97313.19;;;-0.84;88.99
31357;BME280;60001;48.404;11.738;2023-02-16T04:11:34;97318.09;;;-0.80;88.43
31357;BME280;60001;48.404;11.738;2023-02-16T04:13:25;97319.25;;;-0.75;89.53
31357;BME280;60001;48.404;11.738;2023-02-16T04:14:56;97311.94;;;-0.79;89.12
31357;BME280;60001;48.404;11.738;2023-02-16T04:16:29;97311.97;;;-0.71;88.93
31357;BME280;60001;48.404;11.738;2023-02-16T04:18:01;97309.22;;;-0.70;88.72
31357;BME280;60001;48.404;11.738;2023-02-16T04:19:33;97311.66;;;-0.76;88.73
31357;BME280;60001;48.404;11.738;2023-02-16T04:21:04;97318.09;;;-0.80;88.55
31357;BME280;60001;48.404;11.738;2023-02-16T04:22:36;97322.28;;;-0.88;88.19
31357;BME280;60001;48.404;11.738;2023-02-16T04:24:08;97323.53;;;-0.92;88.98
31357;BME280;60001;48.404;11.738;2023-02-16T04:25:40;97329.03;;;-0.95;88.60
31357;BME280;60001;48.404;11.738;2023-02-16T04:27:12;97319.94;;;-0.99;88.27
31357;BME280;60001;48.404;11.738;2023-02-16T04:28:42;97317.69;;;-0.94;89.11
31357;BME280;60001;48.404;11.738;2023-02-16T04:30:16;97318.66;;;-0.95;89.03
31357;BME280;60001;48.404;11.738;2023-02-16T04:31:49;97324.50;;;-0.93;89.01
31357;BME280;60001;48.404;11.738;2023-02-16T04:33:22;97321.75;;;-0.91;88.89
31357;BME280;60001;48.404;11.738;2023-02-16T04:34:54;97318.72;;;-0.87;89.56
31357;BME280;60001;48.404;11.738;2023-02-16T04:36:26;97305.91;;;-0.88;88.67
31357;BME280;60001;48.404;11.738;2023-02-16T04:37:58;97298.59;;;-0.93;88.22
31357;BME280;60001;48.404;11.738;2023-02-16T04:39:29;97300.38;;;-0.93;89.00
31357;BME280;60001;48.404;11.738;2023-02-16T04:41:00;97286.59;;;-0.94;88.38
31357;BME280;60001;48.404;11.738;2023-02-16T04:42:32;97287.03;;;-0.98;88.98
31357;BME280;60001;48.404;11.738;2023-02-16T04:44:03;97298.72;;;-1.02;88.69
31357;BME280;60001;48.404;11.738;2023-02-16T04:45:35;97298.03;;;-1.04;88.27
31357;BME280;60001;48.404;11.738;2023-02-16T04:47:08;97301.31;;;-1.02;88.79
31357;BME280;60001;48.404;11.738;2023-02-16T04:48:40;97293.97;;;-1.07;88.91
31357;BME280;60001;48.404;11.738;2023-02-16T04:50:11;97290.25;;;-1.04;89.30
31357;BME280;60001;48.404;11.738;2023-02-16T04:51:43;97292.03;;;-1.05;88.65
31357;BME280;60001;48.404;11.738;2023-02-16T04:53:14;97293.88;;;-0.97;88.84
31357;BME280;60001;48.404;11.738;2023-02-16T04:54:46;97289.34;;;-0.95;89.32
31357;BME280;60001;48.404;11.738;2023-02-16T04:56:18;97290.81;;;-0.93;88.72
31357;BME280;60001;48.404;11.738;2023-02-16T04:57:50;97290.16;;;-0.95;88.54
31357;BME280;60001;48.404;11.738;2023-02-16T04:59:22;97294.16;;;-1.00;88.55
31357;BME280;60001;48.404;11.738;2023-02-16T05:00:53;97286.53;;;-1.10;88.12
31357;BME280;60001;48.404;11.738;2023-02-16T05:02:27;97297.03;;;-1.12;88.47
31357;BME280;60001;48.404;11.738;2023-02-16T05:03:58;97305.22;;;-1.24;87.99
31357;BME280;60001;48.404;11.738;2023-02-16T05:05:29;97300.34;;;-1.27;88.88
31357;BME280;60001;48.404;11.738;2023-02-16T05:07:01;97307.81;;;-1.24;88.77
31357;BME280;60001;48.404;11.738;2023-02-16T05:08:33;97309.94;;;-1.20;88.64
31357;BME280;60001;48.404;11.738;2023-02-16T05:10:06;97306.09;;;-1.16;88.68
31357;BME280;60001;48.404;11.738;2023-02-16T05:11:37;97302.38;;;-1.13;88.98
31357;BME280;60001;48.404;11.738;2023-02-16T05:13:27;97307.72;;;-1.15;88.68
31357;BME280;60001;48.404;11.738;2023-02-16T05:15:27;97298.47;;;-1.17;88.36
31357;BME280;60001;48.404;11.738;2023-02-16T05:16:59;97302.97;;;-1.19;88.68
31357;BME280;60001;48.404;11.738;2023-02-16T05:18:31;97297.94;;;-1.21;88.88
31357;BME280;60001;48.404;11.738;2023-02-16T05:20:04;97296.66;;;-1.25;88.47
31357;BME280;60001;48.404;11.738;2023-02-16T05:21:37;97302.97;;;-1.19;88.31
31357;BME280;60001;48.404;11.738;2023-02-16T05:23:07;97308.69;;;-1.16;88.41
31357;BME280;60001;48.404;11.738;2023-02-16T05:24:40;97307.22;;;-1.18;88.71
31357;BME280;60001;48.404;11.738;2023-02-16T05:26:12;97309.31;;;-1.14;88.15
31357;BME280;60001;48.404;11.738;2023-02-16T05:27:43;97307.53;;;-1.13;88.39
31357;BME280;60001;48.404;11.738;2023-02-16T05:29:15;97304.66;;;-1.10;88.43
31357;BME280;60001;48.404;11.738;2023-02-16T05:30:46;97319.91;;;-1.07;88.95
31357;BME280;60001;48.404;11.738;2023-02-16T05:32:18;97310.34;;;-1.06;88.44
31357;BME280;60001;48.404;11.738;2023-02-16T05:33:52;97313.75;;;-1.06;88.16
31357;BME280;60001;48.404;11.738;2023-02-16T05:35:23;97314.72;;;-1.07;88.01
31357;BME280;60001;48.404;11.738;2023-02-16T05:36:55;97328.00;;;-1.10;88.53
31357;BME280;60001;48.404;11.738;2023-02-16T05:38:26;97327.94;;;-1.18;87.92
31357;BME280;60001;48.404;11.738;2023-02-16T05:39:58;97328.59;;;-1.16;88.51
31357;BME280;60001;48.404;11.738;2023-02-16T05:41:30;97327.63;;;-1.15;88.88
31357;BME280;60001;48.404;11.738;2023-02-16T05:43:00;97332.97;;;-1.17;88.48
31357;BME280;60001;48.404;11.738;2023-02-16T05:44:32;97326.16;;;-1.18;88.51
31357;BME280;60001;48.404;11.738;2023-02-16T05:46:08;97315.44;;;-1.23;88.37
31357;BME280;60001;48.404;11.738;2023-02-16T05:47:40;97326.00;;;-1.16;88.32
31357;BME280;60001;48.404;11.738;2023-02-16T05:49:14;97319.34;;;-1.19;88.50
31357;BME280;60001;48.404;11.738;2023-02-16T05:50:46;97326.41;;;-1.29;88.60
31357;BME280;60001;48.404;11.738;2023-02-16T05:52:18;97330.50;;;-1.44;87.85
31357;BME280;60001;48.404;11.738;2023-02-16T05:53:50;97327.13;;;-1.45;88.45
31357;BME280;60001;48.404;11.738;2023-02-16T05:55:21;97326.78;;;-1.42;88.66
31357;BME280;60001;48.404;11.738;2023-02-16T05:56:52;97326.78;;;-1.42;88.37
31357;BME280;60001;48.404;11.738;2023-02-16T05:58:24;97325.81;;;-1.41;88.59
31357;BME280;60001;48.404;11.738;2023-02-16T05:59:56;97326.31;;;-1.45;88.34
31357;BME280;60001;48.404;11.738;2023-02-16T06:01:28;97328.41;;;-1.41;88.57
31357;BME280;60001;48.404;11.738;2023-02-16T06:03:00;97336.19;;;-1.41;88.40
31357;BME280;60001;48.404;11.738;2023-02-16T06:04:33;97330.88;;;-1.39;88.88
31357;BME280;60001;48.404;11.738;2023-02-16T06:06:05;97332.50;;;-1.38;88.55
31357;BME280;60001;48.404;11.738;2023-02-16T06:07:38;97336.06;;;-1.39;88.67
31357;BME280;60001;48.404;11.738;2023-02-16T06:09:10;97336.41;;;-1.34;89.12
31357;BME280;60001;48.404;11.738;2023-02-16T06:10:42;97339.81;;;-1.33;88.75
31357;BME280;60001;48.404;11.738;2023-02-16T06:12:14;97339.16;;;-1.35;88.82
31357;BME280;60001;48.404;11.738;2023-02-16T06:13:45;97337.69;;;-1.38;88.95
31357;BME280;60001;48.404;11.738;2023-02-16T06:15:16;97342.72;;;-1.36;88.77
31357;BME280;60001;48.404;11.738;2023-02-16T06:16:49;97353.28;;;-1.30;88.64
31357;BME280;60001;48.404;11.738;2023-02-16T06:18:22;97345.50;;;-1.30;89.04
31357;BME280;60001;48.404;11.738;2023-02-16T06:19:56;97348.91;;;-1.29;88.25
31357;BME280;60001;48.404;11.738;2023-02-16T06:21:28;97347.13;;;-1.29;88.30
31357;BME280;60001;48.404;11.738;2023-02-16T06:22:59;97345.19;;;-1.27;88.95
31357;BME280;60001;48.404;11.738;2023-02-16T06:24:31;97344.22;;;-1.26;88.73
31357;BME280;60001;48.404;11.738;2023-02-16T06:26:03;97341.13;;;-1.29;88.79
31357;BME280;60001;48.404;11.738;2023-02-16T06:27:35;97348.31;;;-1.23;88.46
31357;BME280;60001;48.404;11.738;2023-02-16T06:29:07;97359.16;;;-1.20;88.84
31357;BME280;60001;48.404;11.738;2023-02-16T06:30:39;97359.03;;;-1.18;88.88
31357;BME280;60001;48.404;11.738;2023-02-16T06:32:12;97354.66;;;-1.18;88.91
31357;BME280;60001;48.404;11.738;2023-02-16T06:33:43;97357.75;;;-1.14;88.45
31357;BME280;60001;48.404;11.738;2023-02-16T06:35:17;97361.16;;;-1.14;88.28
31357;BME280;60001;48.404;11.738;2023-02-16T06:36:49;97360.34;;;-1.14;88.10
31357;BME280;60001;48.404;11.738;2023-02-16T06:38:20;97350.22;;;-1.25;88.02
31357;BME280;60001;48.404;11.738;2023-02-16T06:39:52;97373.84;;;-1.11;88.73
31357;BME280;60001;48.404;11.738;2023-02-16T06:41:24;97366.72;;;-1.08;88.69
31357;BME280;60001;48.404;11.738;2023-02-16T06:43:04;97370.13;;;-1.08;88.46
31357;BME280;60001;48.404;11.738;2023-02-16T06:44:36;97372.88;;;-1.09;88.36
31357;BME280;60001;48.404;11.738;2023-02-16T06:46:13;97373.66;;;-1.09;88.39
31357;BME280;60001;48.404;11.738;2023-02-16T06:47:45;97365.91;;;-1.09;87.99
31357;BME280;60001;48.404;11.738;2023-02-16T06:49:18;97368.16;;;-1.06;88.57
31357;BME280;60001;48.404;11.738;2023-02-16T06:50:52;97363.66;;;-1.04;88.15
31357;BME280;60001;48.404;11.738;2023-02-16T06:52:24;97369.50;;;-1.02;88.54
31357;BME280;60001;48.404;11.738;2023-02-16T06:53:56;97360.56;;;-1.07;88.33
31357;BME280;60001;48.404;11.738;2023-02-16T06:55:28;97368.38;;;-0.99;87.80
31357;BME280;60001;48.404;11.738;2023-02-16T06:57:05;97366.59;;;-0.99;88.58
31357;BME280;60001;48.404;11.738;2023-02-16T06:58:37;97368.09;;;-0.96;88.25
31357;BME280;60001;48.404;11.738;2023-02-16T07:00:09;97364.69;;;-0.97;87.86
31357;BME280;60001;48.404;11.738;2023-02-16T07:01:41;97365.50;;;-0.96;87.83
31357;BME280;60001;48.404;11.738;2023-02-16T07:03:13;97375.53;;;-0.93;88.17
31357;BME280;60001;48.404;11.738;2023-02-16T07:04:45;97370.53;;;-0.95;87.29
31357;BME280;60001;48.404;11.738;2023-02-16T07:06:19;97370.00;;;-0.98;87.76
31357;BME280;60001;48.404;11.738;2023-02-16T07:07:51;97373.72;;;-1.01;87.11
31357;BME280;60001;48.404;11.738;2023-02-16T07:09:23;97372.75;;;-1.00;87.36
31357;BME280;60001;48.404;11.738;2023-02-16T07:10:55;97373.41;;;-0.98;87.23
31357;BME280;60001;48.404;11.738;2023-02-16T07:12:27;97377.50;;;-0.95;87.64
31357;BME280;60001;48.404;11.738;2023-02-16T07:13:59;97382.19;;;-0.91;87.73
31357;BME280;60001;48.404;11.738;2023-02-16T07:15:31;97385.47;;;-0.89;87.69
31357;BME280;60001;48.404;11.738;2023-02-16T07:17:03;97380.78;;;-0.85;88.20
31357;BME280;60001;48.404;11.738;2023-02-16T07:18:35;97386.47;;;-0.81;87.37
31357;BME280;60001;48.404;11.738;2023-02-16T07:20:08;97391.19;;;-0.77;88.19
31357;BME280;60001;48.404;11.738;2023-02-16T07:21:43;97387.66;;;-0.76;87.96
31357;BME280;60001;48.404;11.738;2023-02-16T07:23:15;97388.16;;;-0.72;87.17
31357;BME280;60001;48.404;11.738;2023-02-16T07:24:47;97384.91;;;-0.74;87.42
31357;BME280;60001;48.404;11.738;2023-02-16T07:26:19;97386.19;;;-0.70;87.83
31357;BME280;60001;48.404;11.738;2023-02-16T07:27:50;97380.88;;;-0.69;87.75
31357;BME280;60001;48.404;11.738;2023-02-16T07:29:24;97376.34;;;-0.67;87.72
31357;BME280;60001;48.404;11.738;2023-02-16T07:30:56;97383.97;;;-0.65;87.19
31357;BME280;60001;48.404;11.738;2023-02-16T07:32:29;97381.72;;;-0.60;87.36
31357;BME280;60001;48.404;11.738;2023-02-16T07:34:01;97391.13;;;-0.59;88.00
31357;BME280;60001;48.404;11.738;2023-02-16T07:35:33;97392.16;;;-0.52;88.19
31357;BME280;60001;48.404;11.738;2023-02-16T07:37:06;97387.31;;;-0.47;87.64
31357;BME280;60001;48.404;11.738;2023-02-16T07:38:39;97391.19;;;-0.43;87.63
31357;BME280;60001;48.404;11.738;2023-02-16T07:40:12;97390.09;;;-0.40;87.25
31357;BME280;60001;48.404;11.738;2023-02-16T07:41:44;97384.59;;;-0.37;87.35
31357;BME280;60001;48.404;11.738;2023-02-16T07:43:16;97389.47;;;-0.34;87.56
31357;BME280;60001;48.404;11.738;2023-02-16T07:44:48;97394.19;;;-0.30;86.95
31357;BME280;60001;48.404;11.738;2023-02-16T07:46:20;97397.28;;;-0.26;87.46
31357;BME280;60001;48.404;11.738;2023-02-16T07:47:51;97397.63;;;-0.21;86.86
31357;BME280;60001;48.404;11.738;2023-02-16T07:49:23;97410.78;;;-0.14;87.19
31357;BME280;60001;48.404;11.738;2023-02-16T07:50:55;97403.84;;;-0.06;87.17
31357;BME280;60001;48.404;11.738;2023-02-16T07:52:28;97399.31;;;0.05;87.48
31357;BME280;60001;48.404;11.738;2023-02-16T07:54:01;97401.47;;;0.09;86.64
31357;BME280;60001;48.404;11.738;2023-02-16T07:55:32;97401.94;;;0.13;86.63
31357;BME280;60001;48.404;11.738;2023-02-16T07:57:04;97395.63;;;0.15;86.49
31357;BME280;60001;48.404;11.738;2023-02-16T07:58:36;97396.63;;;0.22;86.48
31357;BME280;60001;48.404;11.738;2023-02-16T08:00:09;97399.22;;;0.31;87.15
31357;BME280;60001;48.404;11.738;2023-02-16T08:01:41;97391.78;;;0.36;86.28
31357;BME280;60001;48.404;11.738;2023-02-16T08:03:13;97398.75;;;0.43;86.51
31357;BME280;60001;48.404;11.738;2023-02-16T08:04:45;97395.19;;;0.52;86.06
31357;BME280;60001;48.404;11.738;2023-02-16T08:06:17;97403.00;;;0.61;85.93
31357;BME280;60001;48.404;11.738;2023-02-16T08:07:50;97401.38;;;0.51;85.06
31357;BME280;60001;48.404;11.738;2023-02-16T08:09:22;97401.38;;;0.51;85.10
31357;BME280;60001;48.404;11.738;2023-02-16T08:10:53;97405.13;;;0.57;85.86
31357;BME280;60001;48.404;11.738;2023-02-16T08:12:25;97398.78;;;0.60;86.22
31357;BME280;60001;48.404;11.738;2023-02-16T08:13:58;97406.41;;;0.77;86.09
31357;BME280;60001;48.404;11.738;2023-02-16T08:15:30;97414.56;;;0.91;85.98
31357;BME280;60001;48.404;11.738;2023-02-16T08:17:01;97407.38;;;1.01;86.09
31357;BME280;60001;48.404;11.738;2023-02-16T08:18:34;97411.28;;;1.13;85.17
31357;BME280;60001;48.404;11.738;2023-02-16T08:20:07;97411.22;;;1.29;85.84
31357;BME280;60001;48.404;11.738;2023-02-16T08:21:39;97414.13;;;1.43;85.69